createdAt,value
2022-12-18T00:00:25.119Z,99.99
2022-12-18T00:01:25.905Z,99.99
2022-12-18T00:02:26.688Z,99.99
2022-12-18T00:03:27.527Z,99.99
2022-12-18T00:04:28.402Z,99.99
2022-12-18T00:05:29.093Z,99.99
2022-12-18T00:06:29.756Z,99.99
2022-12-18T00:07:30.460Z,99.99
2022-12-18T00:08:31.164Z,99.99
2022-12-18T00:09:40.344Z,99.99
2022-12-18T00:10:33.478Z,99.99
2022-12-18T00:11:33.184Z,99.99
2022-12-18T00:12:33.890Z,99.99
2022-12-18T00:13:34.645Z,99.99
2022-12-18T00:14:35.876Z,99.99
2022-12-18T00:15:36.092Z,99.99
2022-12-18T00:16:36.853Z,99.99
2022-12-18T00:17:37.514Z,99.99
2022-12-18T00:18:38.649Z,99.99
2022-12-18T00:19:38.950Z,99.99
2022-12-18T00:20:39.754Z,99.99
2022-12-18T00:21:40.388Z,99.99
2022-12-18T00:22:41.095Z,99.99
2022-12-18T00:23:42.407Z,99.99
2022-12-18T00:24:42.821Z,99.99
2022-12-18T00:25:43.507Z,99.99
2022-12-18T00:26:44.215Z,99.99
2022-12-18T00:27:44.921Z,99.99
2022-12-18T00:28:45.629Z,99.99
2022-12-18T00:29:46.871Z,99.99
2022-12-18T00:30:47.088Z,99.99
2022-12-18T00:31:47.845Z,99.99
2022-12-18T00:32:48.498Z,99.99
2022-12-18T00:33:50.008Z,99.99
2022-12-18T00:34:49.869Z,99.99
2022-12-18T00:35:50.593Z,99.99
2022-12-18T00:36:51.274Z,99.99
2022-12-18T00:37:51.984Z,99.99
2022-12-18T00:38:52.703Z,99.99
2022-12-18T00:39:53.904Z,99.99
2022-12-18T00:40:54.090Z,99.99
2022-12-18T00:41:54.795Z,99.99
2022-12-18T00:42:55.508Z,99.99
2022-12-18T00:43:56.223Z,99.99
2022-12-18T00:44:57.368Z,99.99
2022-12-18T00:45:57.669Z,99.99
2022-12-18T00:46:58.307Z,99.99
2022-12-18T00:47:59.029Z,99.99
2022-12-18T00:48:59.743Z,99.99
2022-12-18T00:50:00.868Z,99.99
2022-12-18T00:51:01.099Z,99.99
2022-12-18T00:52:01.754Z,99.99
2022-12-18T00:53:02.458Z,99.99
2022-12-18T00:54:03.167Z,99.99
2022-12-18T00:55:06.460Z,99.99
2022-12-18T00:56:04.854Z,99.99
2022-12-18T00:57:05.562Z,99.99
2022-12-18T00:58:06.274Z,99.99
2022-12-18T00:59:06.984Z,99.99
2022-12-18T01:00:07.869Z,99.99
2022-12-18T01:01:08.625Z,99.99
2022-12-18T01:02:09.441Z,99.99
2022-12-18T01:03:10.278Z,99.99
2022-12-18T01:04:10.927Z,99.99
2022-12-18T01:05:11.871Z,99.99
2022-12-18T01:06:12.596Z,99.99
2022-12-18T01:07:13.266Z,99.99
2022-12-18T01:08:13.977Z,99.99
2022-12-18T01:09:14.686Z,99.99
2022-12-18T01:10:15.890Z,99.99
2022-12-18T01:11:16.075Z,99.99
2022-12-18T01:12:16.783Z,99.99
2022-12-18T01:13:17.493Z,99.99
2022-12-18T01:14:18.209Z,99.99
2022-12-18T01:15:19.366Z,99.99
2022-12-18T01:16:19.643Z,99.99
2022-12-18T01:17:20.292Z,99.99
2022-12-18T01:18:21.005Z,99.99
2022-12-18T01:19:21.731Z,99.99
2022-12-18T01:20:22.867Z,99.99
2022-12-18T01:21:23.100Z,99.99
2022-12-18T01:22:23.784Z,99.99
2022-12-18T01:23:24.494Z,99.99
2022-12-18T01:24:25.200Z,99.99
2022-12-18T01:25:26.386Z,99.99
2022-12-18T01:26:26.572Z,99.99
2022-12-18T01:27:27.281Z,99.99
2022-12-18T01:28:27.987Z,99.99
2022-12-18T01:29:28.694Z,99.99
2022-12-18T01:30:29.869Z,99.99
2022-12-18T01:31:30.156Z,99.99
2022-12-18T01:32:30.814Z,99.99
2022-12-18T01:33:31.536Z,99.99
2022-12-18T01:34:32.242Z,99.99
2022-12-18T01:35:33.370Z,99.99
2022-12-18T01:36:33.589Z,99.99
2022-12-18T01:37:34.271Z,99.99
2022-12-18T01:38:34.980Z,99.99
2022-12-18T01:39:35.704Z,99.99
2022-12-18T01:40:36.879Z,99.99
2022-12-18T01:41:37.085Z,99.99
2022-12-18T01:42:37.794Z,99.99
2022-12-18T01:43:38.871Z,99.99
2022-12-18T01:44:39.308Z,99.99
2022-12-18T01:45:40.406Z,99.99
2022-12-18T01:46:40.586Z,99.99
2022-12-18T01:47:41.292Z,99.99
2022-12-18T01:48:42.010Z,99.99
2022-12-18T01:49:42.728Z,99.99
2022-12-18T01:50:43.435Z,99.99
2022-12-18T01:51:44.160Z,99.99
2022-12-18T01:52:44.895Z,99.99
2022-12-18T01:53:45.596Z,99.99
2022-12-18T01:54:46.298Z,99.99
2022-12-18T01:55:47.016Z,99.99
2022-12-18T01:56:47.721Z,99.99
2022-12-18T01:57:48.427Z,99.99
2022-12-18T01:58:49.166Z,99.99
2022-12-18T01:59:49.868Z,99.99
2022-12-18T02:00:50.650Z,99.99
2022-12-18T02:01:51.459Z,99.99
2022-12-18T02:02:52.306Z,99.99
2022-12-18T02:03:53.092Z,99.99
2022-12-18T02:04:53.802Z,99.99
2022-12-18T02:05:54.866Z,99.99
2022-12-18T02:06:55.091Z,99.99
2022-12-18T02:07:55.760Z,99.99
2022-12-18T02:08:56.486Z,99.99
2022-12-18T02:09:57.191Z,99.99
2022-12-18T02:10:57.913Z,99.99
2022-12-18T02:11:58.613Z,99.99
2022-12-18T02:12:59.438Z,99.99
2022-12-18T02:14:00.055Z,99.99
2022-12-18T02:15:00.589Z,99.99
2022-12-18T02:16:01.304Z,99.99
2022-12-18T02:17:02.103Z,99.99
2022-12-18T02:18:02.824Z,99.99
2022-12-18T02:19:03.529Z,99.99
2022-12-18T02:20:04.234Z,99.99
2022-12-18T02:21:04.948Z,99.99
2022-12-18T02:22:05.675Z,99.99
2022-12-18T02:23:06.325Z,99.99
2022-12-18T02:24:07.029Z,99.99
2022-12-18T02:25:07.733Z,99.99
2022-12-18T02:26:08.445Z,99.99
2022-12-18T02:27:09.189Z,99.99
2022-12-18T02:28:10.004Z,99.99
2022-12-18T02:29:10.628Z,99.99
2022-12-18T02:30:11.332Z,99.99
2022-12-18T02:31:12.177Z,99.99
2022-12-18T02:32:12.887Z,99.99
2022-12-18T02:33:13.602Z,99.99
2022-12-18T02:34:14.303Z,99.99
2022-12-18T02:35:15.002Z,99.99
2022-12-18T02:36:15.722Z,99.99
2022-12-18T02:37:16.442Z,99.99
2022-12-18T02:38:17.164Z,99.99
2022-12-18T02:39:17.870Z,99.99
2022-12-18T02:40:18.574Z,99.99
2022-12-18T02:41:19.302Z,99.99
2022-12-18T02:42:20.057Z,99.99
2022-12-18T02:43:20.883Z,99.99
2022-12-18T02:44:21.507Z,99.99
2022-12-18T02:45:22.216Z,99.99
2022-12-18T02:46:22.928Z,99.99
2022-12-18T02:47:23.850Z,99.99
2022-12-18T02:48:24.557Z,99.99
2022-12-18T02:49:25.258Z,99.99
2022-12-18T02:50:25.965Z,99.99
2022-12-18T02:51:26.685Z,99.99
2022-12-18T02:52:27.397Z,99.99
2022-12-18T02:53:27.943Z,99.99
2022-12-18T02:54:28.646Z,99.99
2022-12-18T02:55:29.350Z,99.99
2022-12-18T02:56:30.067Z,99.99
2022-12-18T02:57:30.770Z,99.99
2022-12-18T02:58:31.589Z,99.99
2022-12-18T02:59:32.204Z,99.99
2022-12-18T03:00:32.910Z,99.99
2022-12-18T03:01:33.744Z,99.99
2022-12-18T03:02:34.564Z,99.99
2022-12-18T03:03:35.302Z,99.99
2022-12-18T03:04:36.003Z,99.99
2022-12-18T03:05:36.817Z,99.99
2022-12-18T03:06:37.530Z,99.99
2022-12-18T03:07:38.303Z,99.99
2022-12-18T03:08:39.007Z,99.99
2022-12-18T03:09:39.711Z,99.99
2022-12-18T03:10:40.420Z,99.99
2022-12-18T03:11:41.263Z,99.99
2022-12-18T03:12:41.959Z,99.99
2022-12-18T03:13:43.048Z,99.99
2022-12-18T03:14:43.304Z,99.99
2022-12-18T03:15:44.007Z,99.99
2022-12-18T03:16:44.799Z,99.99
2022-12-18T03:17:45.499Z,99.99
2022-12-18T03:18:46.268Z,99.99
2022-12-18T03:19:46.972Z,99.99
2022-12-18T03:20:47.678Z,99.99
2022-12-18T03:21:48.443Z,99.99
2022-12-18T03:22:49.165Z,99.99
2022-12-18T03:23:49.895Z,99.99
2022-12-18T03:24:50.595Z,99.99
2022-12-18T03:25:51.300Z,99.99
2022-12-18T03:26:52.011Z,99.99
2022-12-18T03:27:52.725Z,99.99
2022-12-18T03:28:53.545Z,99.99
2022-12-18T03:29:54.182Z,99.99
2022-12-18T03:30:54.961Z,99.99
2022-12-18T03:31:55.618Z,99.99
2022-12-18T03:33:00.111Z,99.99
2022-12-18T03:33:57.087Z,99.99
2022-12-18T03:34:57.792Z,99.99
2022-12-18T03:35:58.546Z,99.99
2022-12-18T03:36:59.259Z,99.99
2022-12-18T03:37:59.991Z,99.99
2022-12-18T03:39:00.649Z,99.99
2022-12-18T03:40:01.352Z,99.99
2022-12-18T03:41:02.058Z,99.99
2022-12-18T03:42:02.790Z,99.99
2022-12-18T03:43:03.484Z,99.99
2022-12-18T03:44:04.301Z,99.99
2022-12-18T03:45:04.925Z,99.99
2022-12-18T03:46:05.749Z,99.99
2022-12-18T03:47:06.457Z,99.99
2022-12-18T03:48:07.159Z,99.99
2022-12-18T03:49:07.862Z,99.99
2022-12-18T03:50:12.659Z,99.99
2022-12-18T03:51:09.161Z,99.99
2022-12-18T03:52:09.881Z,99.99
2022-12-18T03:53:10.556Z,99.99
2022-12-18T03:54:11.289Z,99.99
2022-12-18T03:55:12.044Z,99.99
2022-12-18T03:56:12.748Z,99.99
2022-12-18T03:57:13.703Z,99.99
2022-12-18T03:58:14.466Z,99.99
2022-12-18T03:59:15.287Z,99.99
2022-12-18T04:00:15.919Z,99.99
2022-12-18T04:01:16.850Z,99.99
2022-12-18T04:02:17.757Z,99.99
2022-12-18T04:03:20.619Z,99.99
2022-12-18T04:04:20.098Z,99.99
2022-12-18T04:05:19.810Z,99.99
2022-12-18T04:06:20.516Z,99.99
2022-12-18T04:07:21.229Z,99.99
2022-12-18T04:08:21.967Z,99.99
2022-12-18T04:09:22.620Z,99.99
2022-12-18T04:10:23.331Z,99.99
2022-12-18T04:11:24.030Z,99.99
2022-12-18T04:12:24.866Z,99.99
2022-12-18T04:13:25.571Z,99.99
2022-12-18T04:14:26.396Z,99.99
2022-12-18T04:15:27.073Z,99.99
2022-12-18T04:16:27.731Z,99.99
2022-12-18T04:17:28.512Z,99.99
2022-12-18T04:18:29.224Z,99.99
2022-12-18T04:19:29.923Z,99.99
2022-12-18T04:20:30.630Z,99.99
2022-12-18T04:21:31.336Z,99.99
2022-12-18T04:22:32.053Z,99.99
2022-12-18T04:23:32.803Z,99.99
2022-12-18T04:24:33.510Z,99.99
2022-12-18T04:25:34.219Z,99.99
2022-12-18T04:26:34.924Z,99.99
2022-12-18T04:27:35.861Z,99.99
2022-12-18T04:28:36.126Z,99.99
2022-12-18T04:29:36.946Z,99.99
2022-12-18T04:30:37.565Z,99.99
2022-12-18T04:31:38.286Z,99.99
2022-12-18T04:32:38.985Z,99.99
2022-12-18T04:33:40.143Z,99.99
2022-12-18T04:34:40.519Z,99.99
2022-12-18T04:35:41.237Z,99.99
2022-12-18T04:36:41.970Z,99.99
2022-12-18T04:37:42.685Z,99.99
2022-12-18T04:38:43.407Z,99.99
2022-12-18T04:39:44.115Z,99.99
2022-12-18T04:40:44.824Z,99.99
2022-12-18T04:41:45.528Z,99.99
2022-12-18T04:42:46.325Z,99.99
2022-12-18T04:43:46.994Z,99.99
2022-12-18T04:44:47.813Z,99.99
2022-12-18T04:45:48.450Z,99.99
2022-12-18T04:46:49.202Z,99.99
2022-12-18T04:47:49.878Z,99.99
2022-12-18T04:48:50.582Z,99.99
2022-12-18T04:49:51.292Z,99.99
2022-12-18T04:50:52.005Z,99.99
2022-12-18T04:51:52.708Z,99.99
2022-12-18T04:52:53.861Z,99.99
2022-12-18T04:53:54.095Z,99.99
2022-12-18T04:54:54.770Z,99.99
2022-12-18T04:55:55.478Z,99.99
2022-12-18T04:56:56.186Z,99.99
2022-12-18T04:57:57.360Z,99.99
2022-12-18T04:58:57.568Z,99.99
2022-12-18T04:59:58.402Z,99.99
2022-12-18T05:00:59.027Z,99.99
2022-12-18T05:01:59.889Z,99.99
2022-12-18T05:03:00.936Z,99.99
2022-12-18T05:04:01.189Z,99.99
2022-12-18T05:05:01.877Z,99.99
2022-12-18T05:06:02.587Z,99.99
2022-12-18T05:07:03.293Z,99.99
2022-12-18T05:08:04.013Z,99.99
2022-12-18T05:09:04.741Z,99.99
2022-12-18T05:10:05.651Z,99.99
2022-12-18T05:11:06.593Z,99.99
2022-12-18T05:12:07.297Z,99.99
2022-12-18T05:13:08.015Z,99.99
2022-12-18T05:14:08.759Z,99.99
2022-12-18T05:15:09.580Z,99.99
2022-12-18T05:16:10.288Z,99.99
2022-12-18T05:17:10.946Z,99.99
2022-12-18T05:18:11.866Z,99.99
2022-12-18T05:19:12.566Z,99.99
2022-12-18T05:20:13.274Z,99.99
2022-12-18T05:21:13.982Z,99.99
2022-12-18T05:22:14.686Z,99.99
2022-12-18T05:23:15.607Z,99.99
2022-12-18T05:24:16.329Z,99.99
2022-12-18T05:25:17.018Z,99.99
2022-12-18T05:26:17.723Z,99.99
2022-12-18T05:27:18.431Z,99.99
2022-12-18T05:28:19.144Z,99.99
2022-12-18T05:29:19.851Z,99.99
2022-12-18T05:30:20.671Z,99.99
2022-12-18T05:31:21.404Z,99.99
2022-12-18T05:32:22.067Z,99.99
2022-12-18T05:33:22.786Z,99.99
2022-12-18T05:34:23.488Z,99.99
2022-12-18T05:35:24.197Z,99.99
2022-12-18T05:36:24.899Z,99.99
2022-12-18T05:37:25.604Z,99.99
2022-12-18T05:38:26.320Z,99.99
2022-12-18T05:39:27.049Z,99.99
2022-12-18T05:40:27.737Z,99.99
2022-12-18T05:41:28.546Z,99.99
2022-12-18T05:42:29.257Z,99.99
2022-12-18T05:43:30.370Z,99.99
2022-12-18T05:44:30.587Z,99.99
2022-12-18T05:45:31.414Z,99.99
2022-12-18T05:46:32.112Z,99.99
2022-12-18T05:47:32.810Z,99.99
2022-12-18T05:48:33.527Z,99.99
2022-12-18T05:49:34.233Z,99.99
2022-12-18T05:50:34.938Z,99.99
2022-12-18T05:51:35.652Z,99.99
2022-12-18T05:52:36.367Z,99.99
2022-12-18T05:53:37.805Z,99.99
2022-12-18T05:54:37.746Z,99.99
2022-12-18T05:55:38.434Z,99.99
2022-12-18T05:56:41.055Z,99.99
2022-12-18T05:57:40.802Z,99.99
2022-12-18T05:58:40.857Z,99.99
2022-12-18T05:59:41.068Z,99.99
2022-12-18T06:00:41.892Z,99.99
2022-12-18T06:01:42.645Z,99.99
2022-12-18T06:02:43.473Z,99.99
2022-12-18T06:03:44.744Z,99.99
2022-12-18T06:04:45.076Z,99.99
2022-12-18T06:05:45.782Z,99.99
2022-12-18T06:06:46.486Z,99.99
2022-12-18T06:07:47.213Z,99.99
2022-12-18T06:08:48.366Z,99.99
2022-12-18T06:09:48.595Z,99.99
2022-12-18T06:10:49.290Z,99.99
2022-12-18T06:11:50.016Z,99.99
2022-12-18T06:12:50.739Z,99.99
2022-12-18T06:13:56.332Z,99.99
2022-12-18T06:14:52.964Z,99.99
2022-12-18T06:15:58.361Z,99.99
2022-12-18T06:16:54.397Z,99.99
2022-12-18T06:17:54.019Z,99.99
2022-12-18T06:18:54.859Z,99.99
2022-12-18T06:19:55.565Z,99.99
2022-12-18T06:20:56.290Z,99.99
2022-12-18T06:21:57.003Z,99.99
2022-12-18T06:22:57.775Z,99.99
2022-12-18T06:23:58.860Z,99.99
2022-12-18T06:24:59.411Z,99.99
2022-12-18T06:26:00.101Z,99.99
2022-12-18T06:27:00.804Z,99.99
2022-12-18T06:28:01.513Z,99.99
2022-12-18T06:29:02.371Z,99.99
2022-12-18T06:30:03.107Z,99.99
2022-12-18T06:31:03.954Z,99.99
2022-12-18T06:32:04.753Z,99.99
2022-12-18T06:33:05.377Z,99.99
2022-12-18T06:34:06.363Z,99.99
2022-12-18T06:35:07.072Z,99.99
2022-12-18T06:36:07.819Z,99.99
2022-12-18T06:37:08.530Z,99.99
2022-12-18T06:38:09.330Z,99.99
2022-12-18T06:39:10.361Z,99.99
2022-12-18T06:40:11.152Z,99.99
2022-12-18T06:41:11.844Z,99.99
2022-12-18T06:42:12.561Z,99.99
2022-12-18T06:43:13.269Z,99.99
2022-12-18T06:44:14.368Z,99.99
2022-12-18T06:45:14.576Z,99.99
2022-12-18T06:46:15.372Z,99.99
2022-12-18T06:47:16.164Z,99.99
2022-12-18T06:48:16.790Z,99.99
2022-12-18T06:49:17.859Z,99.99
2022-12-18T06:50:18.099Z,99.99
2022-12-18T06:51:18.808Z,99.61
2022-12-18T06:52:19.520Z,99.93
2022-12-18T06:53:20.276Z,99.93
2022-12-18T06:54:21.358Z,99.61
2022-12-18T06:55:21.524Z,99.72
2022-12-18T06:56:22.219Z,99.82
2022-12-18T06:57:22.926Z,99.40
2022-12-18T06:58:23.668Z,99.72
2022-12-18T06:59:24.380Z,99.40
2022-12-18T07:00:25.089Z,99.30
2022-12-18T07:01:25.909Z,99.08
2022-12-18T07:02:26.872Z,99.19
2022-12-18T07:03:27.558Z,99.61
2022-12-18T07:04:28.357Z,99.99
2022-12-18T07:05:29.062Z,99.30
2022-12-18T07:06:29.769Z,99.30
2022-12-18T07:07:30.475Z,99.30
2022-12-18T07:08:31.189Z,99.40
2022-12-18T07:09:31.896Z,99.30
2022-12-18T07:10:32.622Z,98.66
2022-12-18T07:11:33.331Z,99.51
2022-12-18T07:12:34.073Z,98.77
2022-12-18T07:13:34.777Z,99.19
2022-12-18T07:14:35.855Z,98.66
2022-12-18T07:15:36.061Z,98.62
2022-12-18T07:16:36.818Z,97.88
2022-12-18T07:17:37.605Z,97.88
2022-12-18T07:18:38.250Z,97.99
2022-12-18T07:19:39.353Z,97.47
2022-12-18T07:20:39.560Z,97.00
2022-12-18T07:21:40.270Z,96.16
2022-12-18T07:22:40.974Z,95.90
2022-12-18T07:23:42.078Z,95.59
2022-12-18T07:24:42.327Z,95.59
2022-12-18T07:25:43.051Z,95.17
2022-12-18T07:26:43.701Z,94.75
2022-12-18T07:27:44.411Z,94.43
2022-12-18T07:28:45.116Z,94.49
2022-12-18T07:29:45.858Z,95.28
2022-12-18T07:30:46.586Z,94.75
2022-12-18T07:31:47.336Z,96.01
2022-12-18T07:32:53.989Z,95.48
2022-12-18T07:33:49.723Z,96.12
2022-12-18T07:34:49.359Z,96.12
2022-12-18T07:35:50.068Z,94.85
2022-12-18T07:36:50.777Z,94.54
2022-12-18T07:37:51.479Z,95.28
2022-12-18T07:38:52.198Z,94.65
2022-12-18T07:39:52.913Z,94.18
2022-12-18T07:40:53.648Z,94.39
2022-12-18T07:41:54.339Z,93.87
2022-12-18T07:42:55.043Z,94.18
2022-12-18T07:43:55.755Z,93.87
2022-12-18T07:44:56.866Z,94.08
2022-12-18T07:45:57.301Z,93.55
2022-12-18T07:46:57.983Z,93.55
2022-12-18T07:47:58.738Z,93.34
2022-12-18T07:48:59.570Z,93.40
2022-12-18T07:50:00.206Z,93.87
2022-12-18T07:51:00.912Z,94.14
2022-12-18T07:52:01.617Z,93.93
2022-12-18T07:53:02.334Z,93.62
2022-12-18T07:54:03.039Z,93.62
2022-12-18T07:55:03.752Z,92.88
2022-12-18T07:56:29.983Z,92.14
2022-12-18T07:57:21.249Z,92.25
2022-12-18T07:58:06.686Z,92.46
2022-12-18T07:59:06.392Z,92.73
2022-12-18T08:00:07.109Z,92.63
2022-12-18T08:01:07.900Z,91.89
2022-12-18T08:02:08.811Z,91.79
2022-12-18T08:03:09.197Z,92.42
2022-12-18T08:04:09.997Z,92.83
2022-12-18T08:05:10.634Z,93.15
2022-12-18T08:06:11.348Z,93.57
2022-12-18T08:07:12.098Z,93.68
2022-12-18T08:08:12.801Z,93.99
2022-12-18T08:09:13.540Z,94.83
2022-12-18T08:10:14.256Z,94.62
2022-12-18T08:11:14.979Z,94.83
2022-12-18T08:12:15.657Z,94.83
2022-12-18T08:13:16.366Z,95.56
2022-12-18T08:14:17.071Z,95.04
2022-12-18T08:15:17.785Z,94.73
2022-12-18T08:16:18.575Z,94.41
2022-12-18T08:17:19.440Z,94.10
2022-12-18T08:18:20.145Z,94.93
2022-12-18T08:19:20.974Z,94.83
2022-12-18T08:20:21.611Z,95.46
2022-12-18T08:21:22.379Z,95.25
2022-12-18T08:22:23.067Z,95.04
2022-12-18T08:23:27.547Z,95.04
2022-12-18T08:24:24.298Z,95.04
2022-12-18T08:25:25.008Z,94.62
2022-12-18T08:26:25.731Z,94.68
2022-12-18T08:27:30.360Z,93.32
2022-12-18T08:28:27.186Z,93.53
2022-12-18T08:29:27.894Z,93.74
2022-12-18T08:30:28.772Z,93.53
2022-12-18T08:31:29.195Z,93.49
2022-12-18T08:32:29.693Z,93.63
2022-12-18T08:33:30.374Z,93.27
2022-12-18T08:34:31.189Z,92.86
2022-12-18T08:35:37.015Z,92.54
2022-12-18T08:36:33.463Z,93.53
2022-12-18T08:37:33.251Z,92.23
2022-12-18T08:38:34.007Z,93.53
2022-12-18T08:39:34.709Z,93.84
2022-12-18T08:40:35.421Z,94.06
2022-12-18T08:41:36.150Z,93.84
2022-12-18T08:42:36.843Z,92.69
2022-12-18T08:43:37.992Z,92.48
2022-12-18T08:44:38.321Z,93.01
2022-12-18T08:45:39.080Z,91.28
2022-12-18T08:46:39.926Z,91.39
2022-12-18T08:47:40.627Z,91.08
2022-12-18T08:48:41.334Z,89.57
2022-12-18T08:49:42.165Z,89.73
2022-12-18T08:50:42.857Z,88.96
2022-12-18T08:51:43.566Z,87.18
2022-12-18T08:52:44.276Z,86.72
2022-12-18T08:53:44.987Z,85.22
2022-12-18T08:54:45.702Z,86.27
2022-12-18T08:55:50.177Z,86.16
2022-12-18T08:56:47.246Z,86.06
2022-12-18T08:57:47.978Z,85.85
2022-12-18T08:58:48.686Z,84.28
2022-12-18T08:59:49.405Z,83.51
2022-12-18T09:00:50.355Z,84.56
2022-12-18T09:01:51.233Z,83.26
2022-12-18T09:02:52.097Z,81.76
2022-12-18T09:03:52.826Z,82.07
2022-12-18T09:04:57.335Z,82.77
2022-12-18T09:05:54.855Z,82.14
2022-12-18T09:06:55.083Z,80.75
2022-12-18T09:07:55.807Z,80.23
2022-12-18T09:08:56.519Z,81.59
2022-12-18T09:09:57.228Z,82.73
2022-12-18T09:10:58.360Z,80.33
2022-12-18T09:11:58.596Z,80.19
2022-12-18T09:12:59.282Z,80.30
2022-12-18T09:13:59.990Z,79.98
2022-12-18T09:15:00.699Z,80.47
2022-12-18T09:16:01.854Z,79.11
2022-12-18T09:17:02.249Z,78.91
2022-12-18T09:18:02.903Z,78.77
2022-12-18T09:19:03.613Z,79.28
2022-12-18T09:20:04.432Z,76.99
2022-12-18T09:21:05.358Z,78.24
2022-12-18T09:22:05.562Z,78.77
2022-12-18T09:23:06.330Z,79.28
2022-12-18T09:24:08.643Z,79.39
2022-12-18T09:25:07.794Z,77.41
2022-12-18T09:26:08.855Z,78.87
2022-12-18T09:27:09.143Z,78.66
2022-12-18T09:28:09.816Z,76.99
2022-12-18T09:29:10.522Z,76.99
2022-12-18T09:30:11.230Z,75.71
2022-12-18T09:31:12.423Z,76.02
2022-12-18T09:32:15.283Z,76.96
2022-12-18T09:33:14.231Z,76.12
2022-12-18T09:34:13.941Z,75.60
2022-12-18T09:35:14.758Z,76.65
2022-12-18T09:36:15.384Z,76.43
2022-12-18T09:37:16.125Z,75.92
2022-12-18T09:38:16.835Z,76.96
2022-12-18T09:39:17.539Z,75.29
2022-12-18T09:40:18.272Z,78.42
2022-12-18T09:41:19.361Z,77.69
2022-12-18T09:42:19.586Z,76.09
2022-12-18T09:43:20.298Z,75.22
2022-12-18T09:44:21.178Z,77.34
2022-12-18T09:45:21.873Z,75.26
2022-12-18T09:46:22.943Z,74.08
2022-12-18T09:47:23.097Z,73.94
2022-12-18T09:48:23.804Z,75.50
2022-12-18T09:49:24.512Z,73.52
2022-12-18T09:50:25.340Z,72.80
2022-12-18T09:51:26.366Z,72.24
2022-12-18T09:52:26.572Z,72.49
2022-12-18T09:53:27.294Z,72.49
2022-12-18T09:54:28.004Z,71.23
2022-12-18T09:55:33.565Z,71.83
2022-12-18T09:56:30.854Z,73.39
2022-12-18T09:57:30.077Z,70.79
2022-12-18T09:58:30.744Z,72.11
2022-12-18T09:59:31.450Z,69.82
2022-12-18T10:00:32.158Z,72.52
2022-12-18T10:01:41.447Z,72.94
2022-12-18T10:02:34.642Z,72.63
2022-12-18T10:03:34.361Z,72.31
2022-12-18T10:04:35.107Z,70.97
2022-12-18T10:05:35.893Z,71.69
2022-12-18T10:06:36.854Z,71.90
2022-12-18T10:07:37.061Z,70.97
2022-12-18T10:08:38.152Z,71.69
2022-12-18T10:09:38.570Z,69.30
2022-12-18T10:10:39.296Z,69.51
2022-12-18T10:11:40.359Z,70.86
2022-12-18T10:12:40.585Z,71.69
2022-12-18T10:13:41.245Z,69.92
2022-12-18T10:14:41.955Z,70.34
2022-12-18T10:15:42.718Z,70.65
2022-12-18T10:16:43.856Z,70.34
2022-12-18T10:17:44.061Z,69.82
2022-12-18T10:18:44.769Z,69.51
2022-12-18T10:19:45.478Z,70.41
2022-12-18T10:20:46.296Z,70.00
2022-12-18T10:21:47.358Z,68.33
2022-12-18T10:22:47.559Z,70.83
2022-12-18T10:23:48.672Z,68.13
2022-12-18T10:24:48.870Z,68.75
2022-12-18T10:25:49.579Z,69.48
2022-12-18T10:26:50.324Z,67.92
2022-12-18T10:27:51.058Z,70.13
2022-12-18T10:28:51.705Z,69.58
2022-12-18T10:29:52.415Z,68.23
2022-12-18T10:30:53.190Z,71.07
2022-12-18T10:31:53.853Z,68.33
2022-12-18T10:32:54.564Z,67.71
2022-12-18T10:33:55.271Z,68.13
2022-12-18T10:35:00.013Z,67.09
2022-12-18T10:35:56.608Z,66.54
2022-12-18T10:36:57.358Z,68.65
2022-12-18T10:37:58.074Z,70.00
2022-12-18T10:38:58.782Z,70.20
2022-12-18T10:39:59.425Z,69.17
2022-12-18T10:41:00.130Z,69.27
2022-12-18T10:42:00.845Z,68.13
2022-12-18T10:43:01.568Z,68.62
2022-12-18T10:44:02.257Z,69.24
2022-12-18T10:45:02.962Z,70.28
2022-12-18T10:46:03.851Z,70.07
2022-12-18T10:47:10.112Z,69.86
2022-12-18T10:48:06.480Z,69.86
2022-12-18T10:49:06.193Z,69.03
2022-12-18T10:50:06.904Z,70.28
2022-12-18T10:51:12.733Z,70.90
2022-12-18T10:52:09.363Z,70.48
2022-12-18T10:53:08.844Z,69.96
2022-12-18T10:54:09.548Z,69.45
2022-12-18T10:55:10.255Z,67.58
2022-12-18T10:56:10.959Z,69.76
2022-12-18T10:57:11.672Z,71.31
2022-12-18T10:58:12.396Z,68.72
2022-12-18T10:59:13.057Z,68.20
2022-12-18T11:00:13.763Z,70.69
2022-12-18T11:01:14.558Z,71.83
2022-12-18T11:02:15.348Z,71.94
2022-12-18T11:03:16.110Z,69.62
2022-12-18T11:04:16.818Z,71.42
2022-12-18T11:05:17.528Z,69.52
2022-12-18T11:06:18.346Z,68.79
2022-12-18T11:07:19.357Z,68.59
2022-12-18T11:08:19.565Z,70.31
2022-12-18T11:09:20.269Z,70.52
2022-12-18T11:10:20.982Z,70.56
2022-12-18T11:11:21.689Z,69.73
2022-12-18T11:12:22.858Z,70.14
2022-12-18T11:13:23.095Z,69.93
2022-12-18T11:14:23.736Z,65.58
2022-12-18T11:15:24.444Z,68.48
2022-12-18T11:16:25.213Z,67.34
2022-12-18T11:17:27.043Z,65.99
2022-12-18T11:18:26.845Z,67.03
2022-12-18T11:19:27.551Z,65.99
2022-12-18T11:20:28.261Z,66.99
2022-12-18T11:21:29.086Z,66.06
2022-12-18T11:22:29.856Z,65.34
2022-12-18T11:23:30.578Z,65.75
2022-12-18T11:24:31.281Z,65.44
2022-12-18T11:25:33.328Z,64.51
2022-12-18T11:26:32.551Z,65.65
2022-12-18T11:27:33.357Z,67.10
2022-12-18T11:28:34.102Z,68.65
2022-12-18T11:29:34.763Z,70.31
2022-12-18T11:30:35.568Z,70.42
2022-12-18T11:31:36.089Z,69.27
2022-12-18T11:32:36.856Z,70.87
2022-12-18T11:33:37.571Z,66.41
2022-12-18T11:34:38.267Z,69.21
2022-12-18T11:35:38.974Z,69.00
2022-12-18T11:36:39.804Z,70.14
2022-12-18T11:37:40.862Z,70.04
2022-12-18T11:38:41.474Z,68.48
2022-12-18T11:39:41.777Z,70.45
2022-12-18T11:40:42.483Z,67.03
2022-12-18T11:41:43.191Z,71.08
2022-12-18T11:42:44.361Z,71.08
2022-12-18T11:43:44.590Z,73.08
2022-12-18T11:44:45.300Z,73.18
2022-12-18T11:45:46.002Z,72.66
2022-12-18T11:46:46.839Z,73.28
2022-12-18T11:47:47.871Z,74.77
2022-12-18T11:48:48.078Z,73.22
2022-12-18T11:49:48.790Z,72.38
2022-12-18T11:50:49.509Z,73.00
2022-12-18T11:51:50.325Z,71.62
2022-12-18T11:52:56.543Z,72.97
2022-12-18T11:53:52.962Z,74.26
2022-12-18T11:54:52.668Z,74.46
2022-12-18T11:55:53.410Z,73.43
2022-12-18T11:56:54.149Z,72.07
2022-12-18T11:57:54.863Z,72.45
2022-12-18T11:58:55.592Z,72.56
2022-12-18T11:59:56.262Z,70.69
2022-12-18T12:00:56.973Z,71.31
2022-12-18T12:01:57.846Z,71.31
2022-12-18T12:02:58.932Z,71.83
2022-12-18T12:03:59.189Z,66.33
2022-12-18T12:04:59.864Z,70.38
2022-12-18T12:06:00.572Z,70.07
2022-12-18T12:07:03.231Z,71.73
2022-12-18T12:08:02.360Z,71.31
2022-12-18T12:09:03.064Z,70.69
2022-12-18T12:10:03.783Z,68.51
2022-12-18T12:11:04.487Z,68.82
2022-12-18T12:12:05.377Z,69.34
2022-12-18T12:13:06.092Z,68.82
2022-12-18T12:14:06.815Z,70.59
2022-12-18T12:15:07.483Z,69.86
2022-12-18T12:16:08.248Z,69.96
2022-12-18T12:17:08.986Z,69.86
2022-12-18T12:18:11.530Z,69.55
2022-12-18T12:19:10.406Z,69.03
2022-12-18T12:20:11.113Z,69.03
2022-12-18T12:21:11.875Z,65.70
2022-12-18T12:22:12.680Z,67.68
2022-12-18T12:23:13.358Z,69.34
2022-12-18T12:24:14.063Z,65.19
2022-12-18T12:25:14.773Z,67.68
2022-12-18T12:26:15.486Z,67.44
2022-12-18T12:27:16.196Z,67.99
2022-12-18T12:28:17.359Z,67.65
2022-12-18T12:29:21.168Z,66.72
2022-12-18T12:30:18.068Z,67.34
2022-12-18T12:31:18.798Z,65.89
2022-12-18T12:32:19.481Z,64.75
2022-12-18T12:33:20.361Z,65.16
2022-12-18T12:34:21.074Z,65.58
2022-12-18T12:35:21.779Z,66.61
2022-12-18T12:36:22.707Z,65.06
2022-12-18T12:37:23.529Z,66.09
2022-12-18T12:38:24.363Z,65.37
2022-12-18T12:39:25.068Z,65.26
2022-12-18T12:40:53.780Z,63.81
2022-12-18T12:41:27.384Z,62.98
2022-12-18T12:42:27.100Z,65.68
2022-12-18T12:43:27.885Z,65.37
2022-12-18T12:44:28.587Z,65.99
2022-12-18T12:45:29.348Z,67.13
2022-12-18T12:46:30.014Z,67.44
2022-12-18T12:47:30.732Z,66.54
2022-12-18T12:48:31.394Z,65.50
2022-12-18T12:49:32.806Z,64.95
2022-12-18T12:50:32.833Z,66.41
2022-12-18T12:51:33.814Z,65.70
2022-12-18T12:52:34.836Z,64.75
2022-12-18T12:53:35.862Z,65.78
2022-12-18T12:54:36.409Z,66.09
2022-12-18T12:55:37.024Z,65.37
2022-12-18T12:56:37.727Z,64.02
2022-12-18T12:57:38.416Z,64.23
2022-12-18T12:58:39.362Z,65.58
2022-12-18T12:59:39.845Z,64.64
2022-12-18T13:00:40.449Z,63.92
2022-12-18T13:01:41.517Z,63.40